Springfield, Illinois
Current Conditions -  °F | °C
As of 7:52 PM on Saturday 20 Dec 2014 (Local Time) from KSPI Reporting Station
Overcast Overcast  
Wind Chill:   Ceiling: 3100
Heat Index:   Visibility: 10mi
Dew Point: -1°   Wind: 9mph
Humidity: 76%   Direction: 170°S
Pressure: 30.25"   Gusts: NA
Location:  39.8°N, 89.64°W
Report Text: KSPI 210152Z 17008KT 10SM OVC031 03/M01 A3025 RMK AO2 SLP250 T00331006
Loading
Personal Weather Stations






























Interactive Weather Map New forecast layout! Learn more

10-Day Weather Forecast

Advertisements
Track Severe Weather on mobile